Time;durP1;ratioP1;P1;durP2;ratioP2;P2;SDS_P1;SDS_P2;PMS_P1;PMS_P2;Temp;Humidity;BMP_temperature;BMP_pressure;BME280_temperature;BME280_humidity;BME280_pressure;Samples;Min_cycle;Max_cycle;Signal;HPM_P1;HPM_P2
2023/06/12 00:01:26;;;;;;;;;;;;;;;20.12;64.46;99050.53;3172327;28;19924;-66
2023/06/12 00:02:57;;;;;;;;;;;;;;;20.12;64.25;99050.53;3172022;28;19923;-65
2023/06/12 00:04:29;;;;;;;;;;;;;;;20.11;64.38;99043.56;3172481;28;19983;-65
2023/06/12 00:06:00;;;;;;;;;;;;;;;20.11;64.42;99038.28;3172074;28;19931;-65
2023/06/12 00:07:32;;;;;;;;;;;;;;;20.11;64.31;99033.00;3165440;28;19928;-66
2023/06/12 00:09:04;;;;;;;;;;;;;;;20.12;64.39;99031.19;3160663;28;20315;-66
2023/06/12 00:10:36;;;;;;;;;;;;;;;20.13;64.35;99028.38;3168858;28;20007;-66
2023/06/12 00:12:08;;;;;;;;;;;;;;;20.13;64.29;99038.13;3169735;28;19935;-66
2023/06/12 00:13:39;;;;;;;;;;;;;;;20.14;64.16;99035.38;3166879;28;20320;-66
2023/06/12 00:15:12;;;;;;;;;;;;;;;20.15;64.28;99038.84;3171986;28;20311;-66
2023/06/12 00:16:44;;;;;;;;;;;;;;;20.16;64.10;99033.38;3172381;28;20018;-66
2023/06/12 00:18:16;;;;;;;;;;;;;;;20.16;64.30;99033.38;3172105;28;19928;-66
2023/06/12 00:19:47;;;;;;;;;;;;;;;20.13;64.39;99033.69;3172162;28;20538;-66
2023/06/12 00:21:19;;;;;;;;;;;;;;;20.09;64.60;99034.97;3172090;28;19930;-65
2023/06/12 00:22:51;;;;;;;;;;;;;;;20.08;64.65;99041.22;3166153;28;20320;-66
2023/06/12 00:24:22;;;;;;;;;;;;;;;20.05;64.56;99041.50;3172054;28;20000;-66
2023/06/12 00:25:53;;;;;;;;;;;;;;;20.01;64.96;99042.81;3171977;28;20065;-65
2023/06/12 00:27:25;;;;;;;;;;;;;;;19.96;64.99;99039.75;3171981;28;19997;-66
2023/06/12 00:28:57;;;;;;;;;;;;;;;19.95;65.14;99040.75;3172140;28;19981;-66
2023/06/12 00:30:29;;;;;;;;;;;;;;;19.93;65.29;99040.88;3172121;28;19924;-66
2023/06/12 00:32:00;;;;;;;;;;;;;;;19.94;65.21;99049.66;3171882;28;20008;-66
2023/06/12 00:33:32;;;;;;;;;;;;;;;19.96;65.22;99051.16;3171099;28;20425;-66
2023/06/12 00:35:03;;;;;;;;;;;;;;;19.96;65.09;99056.44;3170944;28;20350;-65
2023/06/12 00:36:35;;;;;;;;;;;;;;;19.95;65.26;99054.78;3168962;28;19924;-67
2023/06/12 00:38:06;;;;;;;;;;;;;;;19.93;65.05;99062.03;3169603;28;20010;-68
2023/06/12 00:39:37;;;;;;;;;;;;;;;19.94;65.05;99061.06;3172070;28;20387;-68
2023/06/12 00:41:09;;;;;;;;;;;;;;;19.93;65.35;99055.91;3171778;28;20392;-68
2023/06/12 00:42:45;;;;;;;;;;;;;;;19.94;65.31;99057.59;3171748;28;19923;-67
2023/06/12 00:44:16;;;;;;;;;;;;;;;19.95;65.32;99059.25;3170102;28;20004;-68
2023/06/12 00:45:48;;;;;;;;;;;;;;;19.94;65.23;99063.72;3171998;28;20320;-69
2023/06/12 00:47:20;;;;;;;;;;;;;;;19.94;65.39;99062.88;3171931;28;20003;-68
2023/06/12 00:48:51;;;;;;;;;;;;;;;19.93;65.29;99063.84;3171614;28;20351;-68
2023/06/12 00:50:26;;;;;;;;;;;;;;;19.91;65.49;99073.75;3171535;28;19991;-69
2023/06/12 00:51:56;;;;;;;;;;;;;;;19.90;65.49;99064.13;3170383;28;19935;-68
2023/06/12 00:53:28;;;;;;;;;;;;;;;19.89;65.56;99060.66;3162029;28;19940;-69
2023/06/12 00:54:59;;;;;;;;;;;;;;;19.88;65.32;99061.66;3171651;28;19938;-68
2023/06/12 00:56:31;;;;;;;;;;;;;;;19.88;65.39;99064.28;3171902;28;19923;-68
2023/06/12 00:58:03;;;;;;;;;;;;;;;19.87;65.64;99059.97;3158994;28;19938;-68
2023/06/12 00:59:33;;;;;;;;;;;;;;;19.86;65.54;99065.41;3171036;28;20018;-68
2023/06/12 01:01:08;;;;;;;;;;;;;;;19.84;65.61;99070.84;3171478;28;20340;-69
2023/06/12 01:02:42;;;;;;;;;;;;;;;19.83;65.46;99073.63;3171629;28;19946;-69
2023/06/12 01:04:14;;;;;;;;;;;;;;;19.78;65.74;99077.53;3171064;28;20422;-69
2023/06/12 01:05:46;;;;;;;;;;;;;;;19.72;66.28;99078.13;3171460;28;19924;-69
2023/06/12 01:07:23;;;;;;;;;;;;;;;19.63;66.65;99075.47;3167011;28;19977;-69
2023/06/12 01:09:00;;;;;;;;;;;;;;;19.53;66.55;99072.88;3167281;28;19967;-69
2023/06/12 01:10:38;;;;;;;;;;;;;;;19.49;66.76;99075.00;3171316;28;20312;-69
2023/06/12 01:12:12;;;;;;;;;;;;;;;19.49;66.52;99075.00;3171492;28;20285;-69
2023/06/12 01:13:43;;;;;;;;;;;;;;;19.47;66.57;99081.38;3171259;28;19924;-68
2023/06/12 01:15:14;;;;;;;;;;;;;;;19.46;66.50;99074.41;3171707;28;19924;-69
2023/06/12 01:16:47;;;;;;;;;;;;;;;19.45;66.57;99083.31;3171492;28;20032;-68
2023/06/12 01:18:21;;;;;;;;;;;;;;;19.44;66.31;99084.31;3171320;28;19950;-68
2023/06/12 01:19:52;;;;;;;;;;;;;;;19.40;66.55;99080.28;3171124;28;20135;-68
2023/06/12 01:21:29;;;;;;;;;;;;;;;19.36;66.57;99073.63;3171511;28;19924;-68
2023/06/12 01:23:05;;;;;;;;;;;;;;;19.33;66.49;99078.22;3165904;28;19924;-68
2023/06/12 01:24:56;;;;;;;;;;;;;;;19.31;66.48;99081.97;3170863;28;19930;-68
2023/06/12 01:26:45;;;;;;;;;;;;;;;19.28;66.66;99083.06;3171179;28;19946;-68
2023/06/12 01:28:23;;;;;;;;;;;;;;;19.25;66.70;99086.00;3171269;28;19935;-68
2023/06/12 01:30:07;;;;;;;;;;;;;;;19.23;66.80;99089.78;3165591;28;19925;-68
2023/06/12 01:31:39;;;;;;;;;;;;;;;19.22;66.56;99080.19;3168313;28;19930;-68
2023/06/12 01:33:17;;;;;;;;;;;;;;;19.21;66.47;99082.00;3171280;28;19976;-68
2023/06/12 01:34:50;;;;;;;;;;;;;;;19.21;66.48;99079.34;3167689;28;19931;-68
2023/06/12 01:36:24;;;;;;;;;;;;;;;19.22;66.20;99075.72;3170865;28;19932;-68
2023/06/12 01:38:01;;;;;;;;;;;;;;;19.23;66.36;99073.94;3169449;28;20021;-68
2023/06/12 01:39:36;;;;;;;;;;;;;;;19.21;66.42;99076.72;3171275;28;20396;-68
2023/06/12 01:41:09;;;;;;;;;;;;;;;19.18;66.38;99074.34;3171353;28;20007;-68
2023/06/12 01:42:41;;;;;;;;;;;;;;;19.14;66.52;99074.75;3171065;28;20431;-67
2023/06/12 01:44:16;;;;;;;;;;;;;;;19.08;66.52;99073.56;3171252;28;20042;-68
2023/06/12 01:45:48;;;;;;;;;;;;;;;19.04;66.64;99072.97;3170555;28;19928;-67
2023/06/12 01:47:18;;;;;;;;;;;;;;;19.04;66.86;99069.50;3171037;28;19954;-68
2023/06/12 01:48:51;;;;;;;;;;;;;;;19.00;66.88;99076.88;3170895;28;19924;-68
2023/06/12 01:50:22;;;;;;;;;;;;;;;18.97;66.92;99068.44;3164774;28;20328;-69
2023/06/12 01:51:53;;;;;;;;;;;;;;;18.92;67.20;99068.84;3169972;28;19932;-69
2023/06/12 01:53:25;;;;;;;;;;;;;;;18.90;67.25;99062.03;3160628;28;20328;-69
2023/06/12 01:54:58;;;;;;;;;;;;;;;18.89;67.47;99076.19;3171234;28;19928;-69
2023/06/12 01:56:30;;;;;;;;;;;;;;;18.87;67.44;99065.78;3158309;28;19924;-69
2023/06/12 01:58:00;;;;;;;;;;;;;;;18.85;67.58;99063.28;3170479;28;19924;-68
2023/06/12 01:59:34;;;;;;;;;;;;;;;18.86;67.60;99072.03;3169277;28;19934;-69
2023/06/12 02:01:05;;;;;;;;;;;;;;;18.84;67.57;99066.06;3165677;28;20396;-67
2023/06/12 02:02:39;;;;;;;;;;;;;;;18.83;67.44;99070.50;3165568;28;19927;-67
2023/06/12 02:04:12;;;;;;;;;;;;;;;18.83;67.75;99067.03;3165471;28;20350;-67
2023/06/12 02:05:43;;;;;;;;;;;;;;;18.82;67.75;99066.22;3163810;28;19996;-68
2023/06/12 02:07:14;;;;;;;;;;;;;;;18.83;67.62;99062.59;3161814;28;19936;-67
2023/06/12 02:08:46;;;;;;;;;;;;;;;18.84;67.45;99069.56;3154515;28;19931;-68
2023/06/12 02:10:18;;;;;;;;;;;;;;;18.88;67.54;99069.28;3159991;28;19928;-67
2023/06/12 02:11:50;;;;;;;;;;;;;;;18.91;67.31;99071.63;3165739;28;19932;-67
2023/06/12 02:13:21;;;;;;;;;;;;;;;18.95;67.34;99067.72;3165602;28;20746;-67
2023/06/12 02:14:55;;;;;;;;;;;;;;;18.98;67.16;99064.81;3165290;28;19935;-68
2023/06/12 02:16:27;;;;;;;;;;;;;;;19.00;67.12;99062.88;3165534;28;19954;-68
2023/06/12 02:17:59;;;;;;;;;;;;;;;19.03;66.94;99065.22;3165384;28;19932;-68
2023/06/12 02:19:32;;;;;;;;;;;;;;;19.06;66.80;99062.28;3165678;28;19988;-67
2023/06/12 02:21:03;;;;;;;;;;;;;;;19.10;66.74;99069.78;3165620;28;19927;-67
2023/06/12 02:22:35;;;;;;;;;;;;;;;19.13;66.54;99078.38;3160126;28;19935;-66
2023/06/12 02:24:06;;;;;;;;;;;;;;;19.14;66.68;99083.53;3165596;28;19977;-66
2023/06/12 02:25:38;;;;;;;;;;;;;;;19.13;66.77;99087.13;3165460;28;20538;-66
2023/06/12 02:27:10;;;;;;;;;;;;;;;19.14;66.69;99088.81;3165330;28;19980;-66
2023/06/12 02:28:41;;;;;;;;;;;;;;;19.15;66.70;99097.56;3165528;28;19927;-67
2023/06/12 02:30:13;;;;;;;;;;;;;;;19.14;66.53;99095.88;3165011;28;19928;-67
2023/06/12 02:31:45;;;;;;;;;;;;;;;19.14;66.95;99103.78;3165241;28;19935;-67
2023/06/12 02:33:17;;;;;;;;;;;;;;;19.14;66.82;99101.16;3165563;28;19966;-67
2023/06/12 02:34:50;;;;;;;;;;;;;;;19.15;67.02;99108.13;3165047;28;20343;-67
2023/06/12 02:36:22;;;;;;;;;;;;;;;19.17;66.77;99101.75;3165386;28;19927;-66
2023/06/12 02:37:53;;;;;;;;;;;;;;;19.18;66.76;99098.13;3163220;28;19954;-66
2023/06/12 02:39:25;;;;;;;;;;;;;;;19.21;66.71;99102.28;3165247;28;20176;-65
2023/06/12 02:40:58;;;;;;;;;;;;;;;19.22;66.58;99096.84;3165379;28;20118;-64
2023/06/12 02:42:29;;;;;;;;;;;;;;;19.24;66.58;99100.19;3165466;28;19938;-65
2023/06/12 02:44:01;;;;;;;;;;;;;;;19.25;66.65;99106.28;3165401;28;20410;-66
2023/06/12 02:45:33;;;;;;;;;;;;;;;19.24;66.48;99102.81;3165291;28;20460;-64
2023/06/12 02:47:05;;;;;;;;;;;;;;;19.22;66.53;99103.94;3164792;28;20417;-64
2023/06/12 02:48:36;;;;;;;;;;;;;;;19.22;66.72;99103.94;3165231;28;20328;-64
2023/06/12 02:50:09;;;;;;;;;;;;;;;19.22;66.63;99099.47;3165253;28;19928;-65
2023/06/12 02:51:41;;;;;;;;;;;;;;;19.18;66.74;99089.38;3165435;28;20463;-64
2023/06/12 02:53:12;;;;;;;;;;;;;;;19.27;66.57;99101.72;3153574;28;19982;-66
2023/06/12 02:54:44;;;;;;;;;;;;;;;19.29;66.61;99105.88;3164211;28;19992;-67
2023/06/12 02:56:15;;;;;;;;;;;;;;;19.31;66.42;99097.81;3165181;28;20474;-66
2023/06/12 02:57:47;;;;;;;;;;;;;;;19.33;66.38;99104.59;3167375;28;19927;-66
2023/06/12 02:59:18;;;;;;;;;;;;;;;19.35;66.43;99096.56;3167729;28;19931;-66
2023/06/12 03:00:51;;;;;;;;;;;;;;;19.35;66.35;99103.66;3167519;28;19928;-68
2023/06/12 03:02:23;;;;;;;;;;;;;;;19.33;66.45;99101.13;3167746;28;19927;-68
2023/06/12 03:03:56;;;;;;;;;;;;;;;19.28;66.71;99100.72;3167633;28;21506;-68
2023/06/12 03:05:29;;;;;;;;;;;;;;;19.26;66.82;99105.34;3167781;28;19931;-68
2023/06/12 03:07:06;;;;;;;;;;;;;;;19.25;66.96;99107.13;3165531;28;20488;-68
2023/06/12 03:08:37;;;;;;;;;;;;;;;19.28;66.81;99113.94;3160610;28;20037;-68
2023/06/12 03:10:09;;;;;;;;;;;;;;;19.31;66.82;99109.22;3167441;28;20110;-68
2023/06/12 03:11:41;;;;;;;;;;;;;;;19.35;66.52;99117.69;3167776;28;19950;-67
2023/06/12 03:13:13;;;;;;;;;;;;;;;19.37;66.60;99115.72;3167330;28;19927;-67
2023/06/12 03:14:45;;;;;;;;;;;;;;;19.39;66.43;99126.16;3167306;28;19928;-68
2023/06/12 03:16:16;;;;;;;;;;;;;;;19.40;66.42;99114.59;3167534;28;20464;-67
2023/06/12 03:17:48;;;;;;;;;;;;;;;19.40;66.36;99119.88;3167268;28;20463;-67
2023/06/12 03:19:20;;;;;;;;;;;;;;;19.40;66.44;99114.59;3167523;28;19928;-67
2023/06/12 03:20:53;;;;;;;;;;;;;;;19.38;66.45;99113.94;3167616;28;19927;-68
2023/06/12 03:22:24;;;;;;;;;;;;;;;19.33;66.69;99112.53;3154725;28;19928;-68
2023/06/12 03:23:56;;;;;;;;;;;;;;;19.32;66.69;99112.69;3166860;28;19928;-68
2023/06/12 03:25:28;;;;;;;;;;;;;;;19.30;66.72;99107.53;3167314;28;19932;-67
2023/06/12 03:26:59;;;;;;;;;;;;;;;19.28;66.75;99112.13;3167421;28;19927;-66
2023/06/12 03:28:31;;;;;;;;;;;;;;;19.29;66.89;99116.44;3167611;28;20393;-67
2023/06/12 03:30:03;;;;;;;;;;;;;;;19.30;66.98;99123.38;3166621;28;20005;-66
2023/06/12 03:31:34;;;;;;;;;;;;;;;19.32;66.78;99117.97;3165661;28;20712;-67
2023/06/12 03:33:05;;;;;;;;;;;;;;;19.37;66.59;99120.16;3167425;28;20185;-67
2023/06/12 03:34:37;;;;;;;;;;;;;;;19.38;66.66;99119.22;3166610;28;20487;-65
2023/06/12 03:36:11;;;;;;;;;;;;;;;19.39;66.80;99126.97;3167061;28;20003;-67
2023/06/12 03:37:42;;;;;;;;;;;;;;;19.41;66.59;99117.13;3164638;28;19927;-67
2023/06/12 03:39:14;;;;;;;;;;;;;;;19.43;66.41;99122.22;3167228;28;19946;-68
2023/06/12 03:40:46;;;;;;;;;;;;;;;19.43;66.27;99114.31;3166910;28;20380;-66
2023/06/12 03:42:18;;;;;;;;;;;;;;;19.46;66.24;99119.31;3166053;28;20008;-65
2023/06/12 03:43:50;;;;;;;;;;;;;;;19.43;66.21;99115.16;3167209;28;20309;-64
2023/06/12 03:45:21;;;;;;;;;;;;;;;19.39;66.22;99113.78;3165935;28;19928;-65
2023/06/12 03:46:53;;;;;;;;;;;;;;;19.39;66.28;99120.88;3166791;28;20536;-66
2023/06/12 03:48:25;;;;;;;;;;;;;;;19.39;66.18;99118.22;3166931;28;19940;-67
2023/06/12 03:49:57;;;;;;;;;;;;;;;19.38;66.40;99116.56;3157540;28;20413;-67
2023/06/12 03:51:30;;;;;;;;;;;;;;;19.35;66.27;99125.59;3166806;28;19932;-68
2023/06/12 03:53:02;;;;;;;;;;;;;;;19.35;66.37;99119.50;3160247;28;19938;-67
2023/06/12 03:54:32;;;;;;;;;;;;;;;19.36;66.31;99115.88;3166682;28;19931;-65
2023/06/12 03:56:04;;;;;;;;;;;;;;;19.42;66.34;99117.94;3167178;28;19928;-67
2023/06/12 03:57:36;;;;;;;;;;;;;;;19.48;66.15;99120.00;3161287;28;19932;-68
2023/06/12 03:59:07;;;;;;;;;;;;;;;19.55;65.72;99123.72;3163188;28;19949;-67
2023/06/12 04:00:39;;;;;;;;;;;;;;;19.61;65.74;99122.31;3166993;28;20130;-69
2023/06/12 04:02:10;;;;;;;;;;;;;;;19.63;65.51;99118.56;3172036;28;19942;-70
2023/06/12 04:03:44;;;;;;;;;;;;;;;19.66;65.52;99125.41;3172613;28;19927;-67
2023/06/12 04:05:15;;;;;;;;;;;;;;;19.68;65.21;99121.66;3171554;28;19988;-64
2023/06/12 04:06:48;;;;;;;;;;;;;;;19.69;65.37;99118.03;3159197;28;19973;-64
2023/06/12 04:08:20;;;;;;;;;;;;;;;19.69;65.22;99112.75;3168429;28;19976;-65
2023/06/12 04:09:52;;;;;;;;;;;;;;;19.66;65.32;99105.09;3169751;28;20014;-64
2023/06/12 04:11:23;;;;;;;;;;;;;;;19.64;65.46;99109.69;3171747;28;19951;-69
2023/06/12 04:12:56;;;;;;;;;;;;;;;19.59;65.52;99111.09;3171816;28;20397;-68
2023/06/12 04:14:28;;;;;;;;;;;;;;;19.57;65.72;99119.16;3171744;28;19924;-66
2023/06/12 04:16:00;;;;;;;;;;;;;;;19.58;65.65;99119.97;3164328;28;19924;-71
2023/06/12 04:17:31;;;;;;;;;;;;;;;19.59;65.83;99125.13;3166970;28;19941;-68
2023/06/12 04:19:03;;;;;;;;;;;;;;;19.59;65.76;99130.41;3171677;28;19998;-70
2023/06/12 04:20:35;;;;;;;;;;;;;;;19.62;65.64;99122.19;3172229;28;19924;-70
2023/06/12 04:22:12;;;;;;;;;;;;;;;19.61;65.73;99120.53;3168921;28;19924;-66
2023/06/12 04:23:47;;;;;;;;;;;;;;;19.60;65.83;99116.22;3164502;28;19959;-70
2023/06/12 04:25:18;;;;;;;;;;;;;;;19.61;65.64;99115.25;3171927;28;19924;-71
2023/06/12 04:26:50;;;;;;;;;;;;;;;19.64;65.57;99125.53;3170925;28;19924;-68
2023/06/12 04:28:22;;;;;;;;;;;;;;;19.65;65.63;99127.22;3170890;28;19999;-72
2023/06/12 04:29:56;;;;;;;;;;;;;;;19.67;65.55;99121.78;3171123;28;19928;-71
2023/06/12 04:31:28;;;;;;;;;;;;;;;19.69;65.52;99125.13;3171637;28;19931;-67
2023/06/12 04:33:01;;;;;;;;;;;;;;;19.72;65.51;99127.47;3171748;28;19927;-69
2023/06/12 04:34:32;;;;;;;;;;;;;;;19.73;65.49;99124.72;3171498;28;20006;-70
2023/06/12 04:36:03;;;;;;;;;;;;;;;19.77;65.17;99126.06;3171828;28;19984;-68
2023/06/12 04:37:37;;;;;;;;;;;;;;;19.81;65.06;99125.78;3168653;28;19932;-69
2023/06/12 04:39:13;;;;;;;;;;;;;;;19.85;65.25;99121.88;3171563;28;20014;-72
2023/06/12 04:40:45;;;;;;;;;;;;;;;19.88;65.02;99126.88;3171762;28;20006;-70
2023/06/12 04:42:16;;;;;;;;;;;;;;;19.92;64.96;99128.25;3171410;28;19947;-72
2023/06/12 04:43:49;;;;;;;;;;;;;;;19.96;65.00;99125.16;3172095;28;20019;-68
2023/06/12 04:45:21;;;;;;;;;;;;;;;20.00;64.81;99121.25;3171941;28;19924;-71
2023/06/12 04:46:53;;;;;;;;;;;;;;;20.05;64.92;99119.97;3171485;28;20349;-68
2023/06/12 04:48:24;;;;;;;;;;;;;;;20.10;64.83;99123.03;3171573;28;19923;-70
2023/06/12 04:49:57;;;;;;;;;;;;;;;20.14;64.73;99119.09;3171614;28;20019;-66
2023/06/12 04:51:29;;;;;;;;;;;;;;;20.19;64.45;99117.69;3171539;28;20388;-66
2023/06/12 04:53:02;;;;;;;;;;;;;;;20.23;64.68;99118.22;3161396;28;20144;-65
2023/06/12 04:54:35;;;;;;;;;;;;;;;20.22;64.61;99121.84;3170885;28;20267;-64
2023/06/12 04:56:08;;;;;;;;;;;;;;;20.24;64.70;99117.25;3171206;28;20064;-69
2023/06/12 04:57:43;;;;;;;;;;;;;;;20.28;64.40;99120.41;3168236;28;19923;-67
2023/06/12 04:59:16;;;;;;;;;;;;;;;20.35;64.40;99129.41;3171154;28;19928;-67
2023/06/12 05:00:49;;;;;;;;;;;;;;;20.39;64.37;99125.50;3163016;28;19927;-70
2023/06/12 05:02:21;;;;;;;;;;;;;;;20.41;64.39;99134.13;3171250;28;19935;-69
2023/06/12 05:03:53;;;;;;;;;;;;;;;20.40;64.34;99124.53;3170702;28;19928;-70
2023/06/12 05:05:27;;;;;;;;;;;;;;;20.37;64.14;99123.00;3170840;28;19981;-70
2023/06/12 05:06:59;;;;;;;;;;;;;;;20.38;64.31;99127.34;3170445;28;19931;-69
2023/06/12 05:08:32;;;;;;;;;;;;;;;20.37;64.12;99135.41;3167428;28;19975;-69
2023/06/12 05:10:04;;;;;;;;;;;;;;;20.40;64.43;99127.16;3158296;28;19924;-70
2023/06/12 05:11:36;;;;;;;;;;;;;;;20.42;64.38;99120.75;3169641;28;20008;-72
2023/06/12 05:13:08;;;;;;;;;;;;;;;20.47;64.15;99125.59;3171362;28;19927;-70
2023/06/12 05:14:40;;;;;;;;;;;;;;;20.50;64.20;99125.31;3164239;28;19924;-69
2023/06/12 05:16:12;;;;;;;;;;;;;;;20.50;64.00;99125.31;3168864;28;19924;-70
2023/06/12 05:17:43;;;;;;;;;;;;;;;20.49;64.03;99128.09;3171077;28;19923;-70
2023/06/12 05:19:15;;;;;;;;;;;;;;;20.52;64.15;99127.78;3171057;28;19924;-70
2023/06/12 05:20:46;;;;;;;;;;;;;;;20.55;64.10;99128.34;3170392;28;19931;-68
2023/06/12 05:22:18;;;;;;;;;;;;;;;20.57;63.82;99133.50;3165965;28;19982;-70
2023/06/12 05:23:52;;;;;;;;;;;;;;;20.55;63.87;99133.63;3164600;28;20676;-70
2023/06/12 05:25:24;;;;;;;;;;;;;;;20.55;63.90;99135.44;3165695;28;19927;-71
2023/06/12 05:26:56;;;;;;;;;;;;;;;20.59;63.83;99129.72;3168517;28;19934;-69
2023/06/12 05:28:27;;;;;;;;;;;;;;;20.64;63.64;99135.38;3170613;28;19928;-68
2023/06/12 05:29:58;;;;;;;;;;;;;;;20.73;63.76;99143.41;3169959;28;19950;-73
2023/06/12 05:31:30;;;;;;;;;;;;;;;20.79;63.47;99140.97;3171022;28;19923;-72
2023/06/12 05:33:01;;;;;;;;;;;;;;;20.85;63.43;99137.75;3170949;28;19934;-72
2023/06/12 05:34:32;;;;;;;;;;;;;;;20.89;63.22;99139.13;3170589;28;19924;-73
2023/06/12 05:36:04;;;;;;;;;;;;;;;20.96;63.22;99143.81;3170982;28;19931;-73
2023/06/12 05:37:36;;;;;;;;;;;;;;;21.01;63.04;99139.72;3171167;28;19924;-74
2023/06/12 05:39:09;;;;;;;;;;;;;;;21.09;62.81;99136.31;3171269;28;19935;-73
2023/06/12 05:40:41;;;;;;;;;;;;;;;21.16;62.65;99133.88;3171519;28;19986;-71
2023/06/12 05:42:13;;;;;;;;;;;;;;;21.19;62.68;99133.56;3171406;28;19946;-72
2023/06/12 05:43:45;;;;;;;;;;;;;;;21.20;62.74;99130.75;3167814;28;19928;-73
2023/06/12 05:45:17;;;;;;;;;;;;;;;21.21;62.69;99135.09;3171007;28;19928;-73
2023/06/12 05:46:51;;;;;;;;;;;;;;;21.25;62.65;99135.63;3169768;28;19931;-68
2023/06/12 05:48:23;;;;;;;;;;;;;;;21.26;62.46;99137.25;3169661;28;20562;-73
2023/06/12 05:49:55;;;;;;;;;;;;;;;21.26;62.68;99135.44;3167112;28;19957;-70
2023/06/12 05:51:27;;;;;;;;;;;;;;;21.27;62.57;99131.00;3169526;28;20617;-75
2023/06/12 05:52:58;;;;;;;;;;;;;;;21.27;62.43;99133.66;3169779;28;19997;-72
2023/06/12 05:54:31;;;;;;;;;;;;;;;21.28;62.44;99128.19;3169873;28;19931;-71
2023/06/12 05:56:03;;;;;;;;;;;;;;;21.30;62.61;99128.88;3169293;28;20415;-68
2023/06/12 05:57:35;;;;;;;;;;;;;;;21.36;62.32;99132.75;3162627;28;19930;-66
2023/06/12 05:59:07;;;;;;;;;;;;;;;21.44;62.00;99138.09;3163269;28;20669;-68
2023/06/12 06:00:40;;;;;;;;;;;;;;;21.51;62.33;99136.50;3169657;28;19927;-71
2023/06/12 06:02:12;;;;;;;;;;;;;;;21.56;62.03;99142.16;3167345;28;19927;-69
2023/06/12 06:03:45;;;;;;;;;;;;;;;21.63;61.91;99133.59;3168804;28;19924;-68
2023/06/12 06:05:17;;;;;;;;;;;;;;;21.72;61.91;99146.72;3170451;28;20505;-69
2023/06/12 06:06:50;;;;;;;;;;;;;;;21.81;61.70;99147.59;3170718;28;19924;-70
2023/06/12 06:08:21;;;;;;;;;;;;;;;21.87;61.45;99149.63;3167876;28;19963;-70
2023/06/12 06:09:54;;;;;;;;;;;;;;;21.92;61.54;99151.81;3164400;28;19928;-69
2023/06/12 06:11:28;;;;;;;;;;;;;;;21.95;61.35;99152.31;3170895;28;20018;-68
2023/06/12 06:13:00;;;;;;;;;;;;;;;21.98;61.05;99143.22;3169150;28;19924;-70
2023/06/12 06:14:31;;;;;;;;;;;;;;;22.03;61.16;99143.56;3168832;28;19923;-68
2023/06/12 06:16:03;;;;;;;;;;;;;;;22.07;61.17;99144.09;3170543;28;19936;-71
2023/06/12 06:17:35;;;;;;;;;;;;;;;22.09;61.08;99136.78;3169417;28;19946;-68
2023/06/12 06:19:07;;;;;;;;;;;;;;;22.15;60.77;99154.72;3171002;28;19934;-69
2023/06/12 06:20:39;;;;;;;;;;;;;;;22.23;60.83;99157.44;3170729;28;19930;-68
2023/06/12 06:22:12;;;;;;;;;;;;;;;22.33;60.44;99144.91;3170191;28;19928;-67
2023/06/12 06:23:44;;;;;;;;;;;;;;;22.48;60.41;99153.06;3170890;28;19923;-68
2023/06/12 06:25:17;;;;;;;;;;;;;;;22.60;60.24;99153.59;3170422;28;19923;-67
2023/06/12 06:26:49;;;;;;;;;;;;;;;22.68;60.03;99137.69;3170098;28;19946;-69
2023/06/12 06:28:20;;;;;;;;;;;;;;;22.77;59.53;99149.13;3170658;28;19973;-67
2023/06/12 06:29:52;;;;;;;;;;;;;;;22.83;59.40;99141.34;3170691;28;19942;-69
2023/06/12 06:31:25;;;;;;;;;;;;;;;22.86;59.17;99146.31;3170171;28;19928;-68
2023/06/12 06:32:56;;;;;;;;;;;;;;;22.89;59.14;99146.03;3172606;28;19923;-68
2023/06/12 06:34:28;;;;;;;;;;;;;;;22.97;59.29;99144.41;3173124;28;20354;-72
2023/06/12 06:36:00;;;;;;;;;;;;;;;23.06;58.94;99148.72;3173011;28;20352;-69
2023/06/12 06:37:35;;;;;;;;;;;;;;;23.16;58.92;99154.72;3172903;28;19924;-69
2023/06/12 06:39:18;;;;;;;;;;;;;;;23.21;58.48;99149.72;3173421;28;19927;-72
2023/06/12 06:40:55;;;;;;;;;;;;;;;23.25;58.67;99151.06;3172837;28;20013;-71
2023/06/12 06:42:31;;;;;;;;;;;;;;;23.31;58.57;99150.38;3173306;28;19924;-70
2023/06/12 06:44:02;;;;;;;;;;;;;;;23.34;58.28;99152.72;3172882;28;19927;-68
2023/06/12 06:45:34;;;;;;;;;;;;;;;23.36;58.23;99148.03;3172960;28;19924;-68
2023/06/12 06:47:06;;;;;;;;;;;;;;;23.45;58.38;99142.72;3162707;28;20007;-68
2023/06/12 06:48:38;;;;;;;;;;;;;;;23.55;57.94;99141.56;3172988;28;20023;-70
2023/06/12 06:50:10;;;;;;;;;;;;;;;23.66;57.81;99135.03;3173181;28;20391;-69
2023/06/12 06:51:42;;;;;;;;;;;;;;;23.79;57.56;99137.22;3172748;28;20465;-70
2023/06/12 06:53:14;;;;;;;;;;;;;;;23.93;57.18;99138.31;3162861;28;19972;-66
2023/06/12 06:54:45;;;;;;;;;;;;;;;24.10;56.71;99136.44;3172952;28;19924;-65
2023/06/12 06:56:18;;;;;;;;;;;;;;;24.21;56.76;99141.38;3172904;28;19928;-66
2023/06/12 06:57:50;;;;;;;;;;;;;;;24.26;56.34;99142.53;3172780;28;19942;-66
2023/06/12 06:59:22;;;;;;;;;;;;;;;24.30;56.25;99141.16;3160361;28;19928;-66
2023/06/12 07:00:53;;;;;;;;;;;;;;;24.38;56.10;99134.16;3172820;28;19928;-66
2023/06/12 07:02:25;;;;;;;;;;;;;;;24.43;55.54;99138.00;3172521;28;19931;-66
2023/06/12 07:03:57;;;;;;;;;;;;;;;24.47;55.82;99135.81;3172994;28;19935;-66
2023/06/12 07:05:28;;;;;;;;;;;;;;;24.49;55.40;99136.44;3172989;28;20094;-65
2023/06/12 07:07:00;;;;;;;;;;;;;;;24.52;55.75;99131.63;3172617;28;19924;-66
2023/06/12 07:08:32;;;;;;;;;;;;;;;24.59;55.15;99122.94;3171069;28;19938;-66
2023/06/12 07:10:04;;;;;;;;;;;;;;;24.68;54.93;99129.88;3172614;28;19927;-65
2023/06/12 07:11:37;;;;;;;;;;;;;;;24.74;55.18;99131.81;3172808;28;20000;-65
2023/06/12 07:13:09;;;;;;;;;;;;;;;24.82;54.97;99130.94;3172786;28;19924;-66
2023/06/12 07:14:40;;;;;;;;;;;;;;;24.87;54.50;99125.88;3172657;28;19928;-66
2023/06/12 07:16:13;;;;;;;;;;;;;;;24.91;54.03;99122.72;3172678;28;19934;-65
2023/06/12 07:17:44;;;;;;;;;;;;;;;24.94;53.87;99117.03;3172915;28;19923;-67
2023/06/12 07:19:16;;;;;;;;;;;;;;;24.99;53.74;99124.47;3172155;28;19924;-66
2023/06/12 07:20:48;;;;;;;;;;;;;;;24.98;53.65;99126.31;3172336;28;19924;-67
2023/06/12 07:22:20;;;;;;;;;;;;;;;24.97;53.21;99126.50;3172213;28;20354;-66
2023/06/12 07:23:52;;;;;;;;;;;;;;;24.90;52.93;99122.88;3171164;28;20401;-66
2023/06/12 07:25:23;;;;;;;;;;;;;;;24.86;53.11;99119.75;3169599;28;19928;-66
2023/06/12 07:26:57;;;;;;;;;;;;;;;24.82;52.76;99117.63;3171126;28;19974;-66
2023/06/12 07:28:28;;;;;;;;;;;;;;;24.82;52.88;99123.78;3172084;28;19924;-67
2023/06/12 07:30:00;;;;;;;;;;;;;;;24.81;52.74;99114.13;3172726;28;20318;-67
2023/06/12 07:31:32;;;;;;;;;;;;;;;24.88;52.47;99116.91;3172732;28;20056;-67
2023/06/12 07:33:04;;;;;;;;;;;;;;;24.96;52.42;99122.16;3172415;28;20051;-66
2023/06/12 07:34:35;;;;;;;;;;;;;;;25.07;51.68;99124.41;3172535;28;19924;-64
2023/06/12 07:36:07;;;;;;;;;;;;;;;25.18;51.75;99121.34;3172277;28;19928;-66
2023/06/12 07:37:39;;;;;;;;;;;;;;;25.26;51.47;99112.47;3171418;28;20423;-65
2023/06/12 07:39:11;;;;;;;;;;;;;;;25.34;51.37;99119.53;3168405;28;19938;-64
2023/06/12 07:40:43;;;;;;;;;;;;;;;25.41;50.98;99115.97;3172381;28;19935;-65
2023/06/12 07:42:16;;;;;;;;;;;;;;;25.48;50.90;99120.59;3169342;28;19971;-66
2023/06/12 07:43:48;;;;;;;;;;;;;;;25.51;50.37;99123.72;3167697;28;19982;-64
2023/06/12 07:45:20;;;;;;;;;;;;;;;25.51;50.57;99117.56;3172471;28;20011;-65
2023/06/12 07:47:02;;;;;;;;;;;;;;;25.43;50.52;99118.44;3170949;28;20022;-67
2023/06/12 07:48:41;;;;;;;;;;;;;;;25.37;50.58;99113.84;3168020;28;19953;-65
2023/06/12 07:50:12;;;;;;;;;;;;;;;25.38;50.80;99116.34;3171827;28;19928;-66
2023/06/12 07:51:44;;;;;;;;;;;;;;;25.41;50.61;99109.84;3172015;28;19924;-64
2023/06/12 07:53:16;;;;;;;;;;;;;;;25.40;50.00;99116.16;3166956;28;19928;-65
2023/06/12 07:54:48;;;;;;;;;;;;;;;25.41;49.81;99112.50;3168619;28;19927;-65
2023/06/12 07:56:20;;;;;;;;;;;;;;;25.47;49.77;99111.78;3166966;28;19934;-65
2023/06/12 07:57:53;;;;;;;;;;;;;;;25.53;49.83;99111.03;3166634;28;20336;-64
2023/06/12 07:59:25;;;;;;;;;;;;;;;25.53;49.33;99113.69;3167352;28;19932;-65
2023/06/12 08:00:57;;;;;;;;;;;;;;;25.55;49.28;99110.84;3166756;28;20023;-65
2023/06/12 08:02:31;;;;;;;;;;;;;;;25.58;49.60;99119.28;3166783;28;20412;-64